Bismarck, ND

3:56 PM CDT on July 28, 2014 (GMT -0500)
Mandan (KY19) Elev 1942 ft | 46.77 °N, 100.89 °W | Change Station

Current weather conditions updated 21 minutes ago

Scattered Clouds
Scattered Clouds
73 °F
Feels Like 73 °F
N
8
Wind Variable Wind from NNE

Today is forecast to be Warmer than yesterday.

Today
High -- | Low -- °F
--% Chance of Precip.
Yesterday
High -- | Low -- °F
Precip. -- in
6:18 AM 9:20 PM
Waxing Crescent, 3% visible
Pressure 30.30 in
Visibility 10.0 miles
Clouds Scattered Clouds 5000 ft
Dew Point 50 °F
Humidity 44%
Rainfall 0.00 in
Snow Depth Not available.
UV 7 out of 12
Pollen 7.00 out of 12
Air Quality Not available.
Flu Activity Not available.
METAR KY19 282035Z AUTO 03007KT 10SM SCT050 23/10 A3030 RMK AO2

More Conditions Fewer Conditions

Pressure 30.30 in
Visibility 10.0 miles
Clouds Scattered Clouds 5000 ft
Dew Point 50 °F
Humidity 44%
Rainfall 0.00 in
Snow Depth Not available.
UV 7 out of 12
Pollen 7.00 out of 12
Air Quality Not available.
Flu Activity Not available.
METAR KY19 282035Z AUTO 03007KT 10SM SCT050 23/10 A3030 RMK AO2

More Conditions Fewer Conditions

10-Day Weather Forecast

Almanac

Astronomy

Jul. 28, 2014 Rise Set
Actual Time 6:18 AM CDT 9:20 PM CDT
Civil Twilight 5:42 AM CDT 9:55 PM CDT
Nautical Twilight 4:56 AM CDT 10:41 PM CDT
Astronomical Twilight 3:59 AM CDT 11:37 PM CDT
Moon 8:11 AM CDT 9:50 PM CDT
Length of Visible Light 16h 13m
Length of Day
15h 01m
Tomorrow will be 2m 26s shorter.
Waxing Crescent, 3% of the Moon is Illuminated
Today
Waxing Crescent
Aug 3
First Quarter
Aug 10
Full
Aug 17
Last Quarter
Aug 25
New

Today's Extremes

State Highs State Lows

Community

WunderPhotos

Upload Photos

1,738,488 photos uploaded!

Nearby

Snow Depth

Station Depth Elevation
No new snow has been reported.

Earthquake Activity

City Distance Mag. Time & Date
No recent earthquake activity has been reported nearby.
Minimum magnitude displayed is 2.5.

Coastal Water Temperatures

Place Temperature
No Stations Reporting

Nearby Weather Stations

Station Location Temp. Heat Index Dew Point Humidity Wind Precip. Elev Updated Type
HADS MISSOURI RIVER AT BISMARCK (WATE ND, Bismarck, ND 73 °F 71 °F - - North  at  - 0.00 in / hr 1618 ft 3:15 PM CDT MADIS
Centerville Lane, Bismarck, ND 76.7 °F 78 °F 51 °F 41% NE  at  0.0 mph 0.00 in / hr 1811 ft 3:56 PM CDT Rapid Fire
Bismarck, ND 72.1 °F 77 °F 55 °F 55% NNE  at  2.0 mph 0.00 in / hr 1867 ft 3:55 PM CDT Normal
Lincoln, Lincoln, ND 76.5 °F 78 °F 52 °F 43% ENE  at  0.0 mph - / hr 1670 ft 3:45 PM CDT Normal
Rural North Bismarck, Harvest Grove Subd, Bismarck, ND 72.2 °F 77 °F 55 °F 54% NNE  at  4.0 mph 0.00 in / hr 1900 ft 3:56 PM CDT Rapid Fire

Show More Stations Show Fewer Stations